Amparo Paola — XCDC9 — position and weather

sailwx.info

Track history (hours):
 
Tides and Currents Weather Stations Pressure Air Temp Water Temp Dewpoint Dewpoint Depression Visibility Wind Speed Wind Dir Waves Ship Positions

Amparo Paola

Last reported at 2018-Jul-16 21:32 UTC. Time now 2018-Jul-22 14:23 UTC.
Position N 21°58' W 090°48'.

Length 136 m; draft 5.1 m.

Type: Cargo ship. MMSI: 345010030.

Date/timePositionNaut miles runAvg speedWind from/ knotsBaromVisibWave heightAir tempDewpointWater temp
2018-Jul-16 21:32N 21°58' W 090°48'311.7
2018-Jul-16 21:16N 21°57' W 090°45'311.7
2018-Jul-16 21:00N 21°57' W 090°41'611.6
2018-Jul-16 20:30N 21°56' W 090°35'611.4
2018-Jul-16 19:59N 21°55' W 090°29'1611.5
2018-Jul-16 18:37N 21°53' W 090°12'111.7
2018-Jul-16 18:30N 21°53' W 090°10'  
2018-Jul-14 10:21N 20°36' W 086°59'  
2018-Jul-11 10:19N 20°36' W 086°58'  
Track history (hours):
 
Tides and Currents Weather Stations Pressure Air Temp Water Temp Dewpoint Dewpoint Depression Visibility Wind Speed Wind Dir Waves Ship Positions

Amparo Paola

Last reported at 2018-Jul-16 21:32 UTC. Time now 2018-Jul-22 14:23 UTC.
Position N 21°58' W 090°48'.

Length 136 m; draft 5.1 m.

Type: Cargo ship. MMSI: 345010030.

Date/timePositionNaut miles runAvg speedWind from/ knotsBaromVisibWave heightAir tempDewpointWater temp
2018-Jul-16 21:32N 21°58' W 090°48'311.7
2018-Jul-16 21:16N 21°57' W 090°45'311.7
2018-Jul-16 21:00N 21°57' W 090°41'611.6
2018-Jul-16 20:30N 21°56' W 090°35'611.4
2018-Jul-16 19:59N 21°55' W 090°29'1611.5
2018-Jul-16 18:37N 21°53' W 090°12'111.7
2018-Jul-16 18:30N 21°53' W 090°10'  
2018-Jul-14 10:21N 20°36' W 086°59'  
2018-Jul-11 10:19N 20°36' W 086°58'  

Dump ship's entire track history